createdAt,value
2017-12-31T00:01:19.418Z,11.40
2017-12-31T00:03:45.820Z,11.30
2017-12-31T00:06:12.987Z,11.30
2017-12-31T00:08:39.355Z,11.30
2017-12-31T00:11:06.470Z,11.30
2017-12-31T00:13:32.846Z,11.20
2017-12-31T00:15:59.262Z,11.20
2017-12-31T00:18:25.694Z,11.10
2017-12-31T00:20:52.047Z,11.00
2017-12-31T00:23:18.433Z,11.00
2017-12-31T00:25:45.533Z,10.80
2017-12-31T00:28:11.839Z,10.80
2017-12-31T00:30:38.957Z,10.70
2017-12-31T00:33:05.908Z,10.70
2017-12-31T00:35:32.305Z,10.70
2017-12-31T00:37:59.417Z,10.60
2017-12-31T00:40:25.797Z,10.60
2017-12-31T00:42:52.967Z,10.60
2017-12-31T00:45:19.349Z,10.60
2017-12-31T00:47:45.721Z,10.60
2017-12-31T00:50:12.125Z,10.60
2017-12-31T00:52:38.581Z,10.60
2017-12-31T00:55:05.545Z,10.50
2017-12-31T00:57:31.957Z,10.50
2017-12-31T00:59:58.374Z,10.40
2017-12-31T01:02:25.583Z,10.30
2017-12-31T01:04:52.357Z,10.30
2017-12-31T01:07:18.747Z,10.30
2017-12-31T01:09:45.119Z,10.30
2017-12-31T01:12:11.494Z,10.20
2017-12-31T01:14:37.896Z,10.30
2017-12-31T01:17:05.803Z,10.20
2017-12-31T01:19:33.133Z,10.20
2017-12-31T01:21:59.539Z,10.10
2017-12-31T01:24:26.639Z,10.20
2017-12-31T01:26:53.019Z,10.20
2017-12-31T01:29:19.377Z,10.20
2017-12-31T01:31:45.861Z,10.20
2017-12-31T01:34:12.950Z,10.00
2017-12-31T01:36:40.129Z,10.10
2017-12-31T01:39:06.642Z,10.00
2017-12-31T01:41:33.747Z,10.00
2017-12-31T01:44:00.120Z,10.00
2017-12-31T01:46:26.551Z,9.90
2017-12-31T01:49:01.863Z,9.90
2017-12-31T01:51:28.243Z,9.90
2017-12-31T01:53:54.588Z,9.90
2017-12-31T01:56:20.951Z,9.90
2017-12-31T01:58:47.402Z,10.00
2017-12-31T02:01:13.844Z,9.80
2017-12-31T02:03:40.151Z,9.80
2017-12-31T02:06:07.302Z,9.70
2017-12-31T02:08:33.721Z,9.70
2017-12-31T02:11:00.107Z,9.70
2017-12-31T02:13:26.446Z,9.70
2017-12-31T02:15:52.799Z,9.60
2017-12-31T02:18:19.226Z,9.60
2017-12-31T02:20:45.636Z,9.50
2017-12-31T02:23:12.036Z,9.50
2017-12-31T02:25:38.371Z,9.50
2017-12-31T02:28:05.308Z,9.50
2017-12-31T02:30:31.726Z,9.40
2017-12-31T02:32:58.363Z,9.40
2017-12-31T02:35:25.424Z,9.30
2017-12-31T02:37:51.815Z,9.30
2017-12-31T02:40:18.135Z,9.20
2017-12-31T02:42:45.195Z,9.20
2017-12-31T02:45:11.563Z,9.20
2017-12-31T02:47:38.031Z,9.20
2017-12-31T02:50:04.890Z,9.10
2017-12-31T02:52:32.011Z,9.20
2017-12-31T02:54:58.348Z,9.20
2017-12-31T02:57:24.711Z,9.10
2017-12-31T02:59:51.094Z,9.10
2017-12-31T03:02:17.468Z,9.10
2017-12-31T03:04:43.863Z,9.10
2017-12-31T03:07:10.195Z,9.10
2017-12-31T03:09:36.534Z,9.20
2017-12-31T03:12:03.370Z,9.20
2017-12-31T03:14:29.829Z,9.20
2017-12-31T03:16:56.183Z,9.10
2017-12-31T03:19:22.658Z,9.10
2017-12-31T03:21:49.790Z,9.20
2017-12-31T03:24:16.251Z,9.10
2017-12-31T03:26:42.574Z,9.10
2017-12-31T03:29:08.915Z,9.20
2017-12-31T03:31:36.802Z,9.10
2017-12-31T03:34:03.932Z,9.10
2017-12-31T03:36:31.843Z,9.20
2017-12-31T03:38:58.195Z,9.20
2017-12-31T03:41:24.514Z,9.30
2017-12-31T03:43:50.863Z,9.40
2017-12-31T03:46:17.187Z,9.60
2017-12-31T03:48:44.364Z,10.10
2017-12-31T03:51:10.715Z,10.00
2017-12-31T03:53:37.053Z,10.10
2017-12-31T03:56:05.729Z,10.50
2017-12-31T03:58:32.074Z,10.50
2017-12-31T04:00:58.550Z,10.60
2017-12-31T04:03:24.931Z,10.80
2017-12-31T04:05:51.619Z,10.90
2017-12-31T04:08:17.939Z,11.00
2017-12-31T04:10:44.279Z,11.10
2017-12-31T04:13:10.662Z,11.20
2017-12-31T04:15:37.132Z,11.10
2017-12-31T04:18:04.555Z,11.10
2017-12-31T04:20:38.548Z,11.10
2017-12-31T04:23:05.532Z,11.10
2017-12-31T04:25:31.891Z,11.20
2017-12-31T04:27:58.236Z,11.20
2017-12-31T04:30:25.321Z,11.30
2017-12-31T04:32:51.691Z,11.20
2017-12-31T04:35:18.203Z,11.30
2017-12-31T04:37:44.567Z,11.20
2017-12-31T04:40:11.699Z,11.20
2017-12-31T04:42:38.055Z,11.20
2017-12-31T04:45:04.402Z,11.20
2017-12-31T04:47:30.779Z,11.20
2017-12-31T04:49:57.287Z,11.30
2017-12-31T04:52:24.394Z,11.30
2017-12-31T04:54:50.781Z,11.20
2017-12-31T04:57:17.099Z,11.30
2017-12-31T04:59:43.478Z,11.30
2017-12-31T05:02:09.815Z,11.30
2017-12-31T05:04:36.288Z,11.30
2017-12-31T05:07:03.641Z,11.20
2017-12-31T05:09:30.734Z,11.10
2017-12-31T05:11:57.067Z,11.10
2017-12-31T05:14:23.399Z,11.10
2017-12-31T05:16:50.608Z,11.10
2017-12-31T05:19:16.943Z,11.10
2017-12-31T05:21:43.323Z,11.20
2017-12-31T05:24:09.717Z,11.20
2017-12-31T05:26:36.084Z,11.20
2017-12-31T05:29:02.413Z,11.30
2017-12-31T05:31:28.775Z,11.30
2017-12-31T05:33:55.152Z,11.40
2017-12-31T05:36:21.627Z,11.50
2017-12-31T05:38:48.013Z,11.50
2017-12-31T05:41:14.331Z,11.40
2017-12-31T05:43:40.684Z,11.40
2017-12-31T05:46:07.527Z,11.50
2017-12-31T05:48:33.938Z,11.50
2017-12-31T05:51:00.993Z,11.60
2017-12-31T05:53:27.476Z,11.60
2017-12-31T05:55:53.999Z,11.50
2017-12-31T05:58:21.086Z,11.60
2017-12-31T06:00:48.947Z,11.60
2017-12-31T06:03:15.388Z,11.60
2017-12-31T06:05:41.760Z,11.60
2017-12-31T06:08:08.123Z,11.70
2017-12-31T06:10:34.494Z,11.70
2017-12-31T06:13:01.764Z,11.90
2017-12-31T06:15:28.131Z,11.90
2017-12-31T06:17:54.460Z,11.90
2017-12-31T06:20:21.567Z,11.90
2017-12-31T06:22:47.978Z,11.90
2017-12-31T06:25:14.313Z,11.90
2017-12-31T06:27:40.659Z,11.80
2017-12-31T06:30:07.777Z,12.10
2017-12-31T06:32:35.616Z,12.00
2017-12-31T06:35:02.046Z,12.00
2017-12-31T06:37:28.410Z,12.00
2017-12-31T06:39:54.755Z,12.10
2017-12-31T06:42:21.137Z,12.20
2017-12-31T06:44:47.519Z,12.20
2017-12-31T06:47:13.915Z,11.80
2017-12-31T06:49:40.292Z,12.20
2017-12-31T06:52:07.181Z,12.30
2017-12-31T06:54:33.535Z,12.20
2017-12-31T06:57:00.131Z,12.20
2017-12-31T06:59:26.478Z,12.20
2017-12-31T07:01:53.851Z,12.20
2017-12-31T07:04:20.238Z,12.20
2017-12-31T07:06:46.655Z,12.20
2017-12-31T07:09:13.108Z,12.20
2017-12-31T07:11:39.834Z,12.20
2017-12-31T07:14:06.483Z,11.50
2017-12-31T07:16:32.961Z,12.30
2017-12-31T07:18:59.372Z,12.50
2017-12-31T07:21:27.816Z,12.60
2017-12-31T07:23:54.379Z,12.60
2017-12-31T07:26:20.890Z,12.60
2017-12-31T07:28:47.407Z,12.50
2017-12-31T07:31:14.012Z,12.60
2017-12-31T07:33:41.498Z,12.50
2017-12-31T07:36:08.120Z,12.40
2017-12-31T07:38:34.847Z,12.70
2017-12-31T07:41:01.314Z,12.80
2017-12-31T07:43:27.956Z,12.60
2017-12-31T07:45:54.388Z,12.60
2017-12-31T07:48:20.855Z,12.50
2017-12-31T07:50:48.888Z,12.50
2017-12-31T07:53:15.527Z,12.50
2017-12-31T07:55:42.725Z,12.50
2017-12-31T07:58:09.174Z,12.50
2017-12-31T08:00:35.635Z,12.60
2017-12-31T08:03:02.039Z,12.60
2017-12-31T08:05:28.473Z,12.70
2017-12-31T08:07:54.879Z,12.80
2017-12-31T08:10:22.116Z,12.80
2017-12-31T08:12:49.295Z,12.80
2017-12-31T08:15:15.776Z,12.80
2017-12-31T08:17:42.967Z,12.80
2017-12-31T08:20:09.435Z,12.80
2017-12-31T08:22:36.153Z,12.90
2017-12-31T08:25:02.923Z,12.90
2017-12-31T08:27:29.357Z,13.00
2017-12-31T08:29:56.479Z,13.00
2017-12-31T08:32:22.883Z,13.00
2017-12-31T08:34:49.419Z,13.00
2017-12-31T08:37:15.870Z,13.00
2017-12-31T08:39:42.357Z,13.00
2017-12-31T08:42:08.747Z,13.00
2017-12-31T08:44:36.287Z,13.00
2017-12-31T08:47:02.874Z,13.00
2017-12-31T08:49:29.324Z,13.10
2017-12-31T08:51:55.690Z,13.10
2017-12-31T08:54:22.111Z,13.10
2017-12-31T08:56:49.299Z,13.10
2017-12-31T08:59:15.951Z,13.00
2017-12-31T09:01:42.464Z,13.00
2017-12-31T09:04:09.135Z,13.10
2017-12-31T09:06:35.631Z,13.10
2017-12-31T09:09:02.029Z,13.10
2017-12-31T09:11:28.414Z,13.10
2017-12-31T09:13:55.591Z,13.10
2017-12-31T09:16:23.558Z,13.10
2017-12-31T09:18:49.928Z,13.00
2017-12-31T09:21:16.318Z,13.00
2017-12-31T09:23:42.698Z,13.10
2017-12-31T09:26:09.139Z,13.10
2017-12-31T09:28:35.631Z,13.00
2017-12-31T09:31:02.376Z,13.10
2017-12-31T09:33:30.588Z,13.10
2017-12-31T09:35:57.074Z,13.10
2017-12-31T09:38:23.535Z,13.00
2017-12-31T09:40:49.952Z,13.00
2017-12-31T09:43:16.382Z,13.10
2017-12-31T09:45:44.523Z,13.10
2017-12-31T09:48:11.115Z,13.10
2017-12-31T09:50:37.559Z,13.10
2017-12-31T09:53:04.316Z,14.00
2017-12-31T09:55:30.698Z,13.20
2017-12-31T09:57:57.140Z,13.20
2017-12-31T10:00:23.531Z,13.30
2017-12-31T10:02:50.043Z,13.30
2017-12-31T10:05:16.467Z,13.30
2017-12-31T10:07:42.872Z,13.20
2017-12-31T10:10:09.393Z,13.60
2017-12-31T10:12:36.042Z,13.50
2017-12-31T10:15:03.519Z,13.70
2017-12-31T10:17:29.923Z,13.70
2017-12-31T10:19:56.339Z,13.70
2017-12-31T10:22:22.723Z,13.80
2017-12-31T10:24:49.348Z,13.70
2017-12-31T10:27:16.011Z,13.70
2017-12-31T10:29:42.423Z,13.60
2017-12-31T10:32:08.943Z,13.50
2017-12-31T10:34:35.324Z,13.50
2017-12-31T10:37:02.537Z,13.70
2017-12-31T10:39:29.367Z,13.70
2017-12-31T10:41:55.779Z,13.80
2017-12-31T10:44:22.157Z,13.80
2017-12-31T10:46:49.345Z,14.00
2017-12-31T10:49:15.757Z,14.00
2017-12-31T10:51:42.231Z,14.10
2017-12-31T10:54:08.676Z,14.10
2017-12-31T10:56:35.140Z,14.00
2017-12-31T10:59:02.491Z,14.20
2017-12-31T11:01:29.636Z,14.20
2017-12-31T11:03:56.235Z,14.20
2017-12-31T11:06:24.164Z,14.10
2017-12-31T11:08:50.588Z,14.20
2017-12-31T11:11:18.568Z,14.10
2017-12-31T11:13:45.046Z,14.20
2017-12-31T11:16:11.850Z,14.20
2017-12-31T11:18:39.080Z,14.20
2017-12-31T11:21:05.467Z,14.20
2017-12-31T11:26:24.599Z,14.60
2017-12-31T11:28:51.064Z,14.20
2017-12-31T11:31:17.463Z,14.20
2017-12-31T11:33:44.008Z,14.40
2017-12-31T11:36:10.433Z,14.40
2017-12-31T11:38:36.866Z,14.50
2017-12-31T11:41:03.672Z,14.50
2017-12-31T11:43:30.119Z,14.50
2017-12-31T11:45:56.552Z,14.50
2017-12-31T11:48:23.015Z,14.40
2017-12-31T11:50:49.451Z,14.40
2017-12-31T11:53:15.888Z,14.30
2017-12-31T11:55:42.375Z,14.30
2017-12-31T11:58:09.484Z,14.20
2017-12-31T12:00:35.978Z,14.00
2017-12-31T12:03:02.471Z,13.90
2017-12-31T12:05:30.675Z,14.20
2017-12-31T12:07:57.144Z,15.00
2017-12-31T12:10:23.555Z,14.30
2017-12-31T12:12:50.745Z,14.30
2017-12-31T12:15:17.151Z,14.20
2017-12-31T12:17:43.663Z,14.30
2017-12-31T12:20:10.802Z,14.20
2017-12-31T12:22:38.099Z,14.20
2017-12-31T12:25:04.552Z,14.20
2017-12-31T12:27:31.021Z,14.10
2017-12-31T12:29:57.555Z,14.40
2017-12-31T12:32:24.090Z,14.50
2017-12-31T12:34:52.223Z,14.40
2017-12-31T12:37:18.592Z,14.50
2017-12-31T12:39:45.007Z,14.60
2017-12-31T12:42:11.696Z,14.70
2017-12-31T12:44:38.143Z,15.10
2017-12-31T12:47:04.875Z,14.60
2017-12-31T12:49:31.355Z,14.60
2017-12-31T12:51:57.934Z,14.60
2017-12-31T12:54:24.343Z,14.60
2017-12-31T12:56:51.513Z,14.50
2017-12-31T12:59:18.655Z,14.50
2017-12-31T13:01:46.075Z,14.50
2017-12-31T13:04:12.534Z,14.40
2017-12-31T13:06:39.159Z,14.40
2017-12-31T13:09:05.523Z,14.40
2017-12-31T13:11:32.397Z,14.40
2017-12-31T13:13:58.821Z,14.40
2017-12-31T13:16:25.980Z,14.30
2017-12-31T13:18:52.370Z,14.30
2017-12-31T13:21:19.092Z,14.20
2017-12-31T13:23:45.437Z,14.30
2017-12-31T13:26:11.936Z,14.30
2017-12-31T13:28:38.358Z,14.40
2017-12-31T13:31:04.791Z,14.30
2017-12-31T13:33:33.211Z,14.30
2017-12-31T13:35:59.667Z,14.30
2017-12-31T13:38:27.476Z,14.20
2017-12-31T13:40:54.631Z,14.20
2017-12-31T13:43:21.047Z,14.10
2017-12-31T13:45:47.493Z,14.20
2017-12-31T13:48:14.651Z,14.10
2017-12-31T13:50:41.158Z,14.10
2017-12-31T13:53:07.592Z,14.10
2017-12-31T13:55:35.010Z,14.00
2017-12-31T13:58:01.677Z,13.90
2017-12-31T14:00:28.132Z,13.90
2017-12-31T14:02:54.576Z,13.90
2017-12-31T14:05:21.044Z,13.90
2017-12-31T14:07:47.527Z,14.00
2017-12-31T14:10:15.443Z,13.90
2017-12-31T14:12:45.584Z,14.00
2017-12-31T14:15:14.129Z,14.10
2017-12-31T14:17:40.529Z,14.00
2017-12-31T14:20:07.436Z,14.00
2017-12-31T14:22:33.815Z,13.90
2017-12-31T14:25:00.281Z,13.80
2017-12-31T14:27:29.351Z,13.80
2017-12-31T14:29:55.799Z,13.80
2017-12-31T14:32:22.242Z,13.80
2017-12-31T14:34:48.736Z,13.80
2017-12-31T14:37:15.981Z,13.80
2017-12-31T14:39:42.362Z,13.70
2017-12-31T14:42:08.820Z,13.70
2017-12-31T14:44:35.328Z,13.70
2017-12-31T14:47:02.724Z,13.60
2017-12-31T14:49:31.727Z,13.60
2017-12-31T14:51:58.151Z,13.50
2017-12-31T14:54:25.321Z,13.70
2017-12-31T14:56:53.715Z,13.60
2017-12-31T14:59:20.204Z,13.60
2017-12-31T15:01:46.584Z,13.60
2017-12-31T15:04:12.981Z,13.60
2017-12-31T15:06:39.685Z,13.60
2017-12-31T15:09:06.123Z,13.60
2017-12-31T15:11:32.630Z,13.60
2017-12-31T15:13:59.096Z,13.60
2017-12-31T15:16:25.573Z,13.30
2017-12-31T15:18:53.743Z,13.60
2017-12-31T15:21:22.374Z,13.60
2017-12-31T15:23:48.833Z,13.70
2017-12-31T15:26:15.381Z,13.30
2017-12-31T15:28:42.792Z,13.70
2017-12-31T15:31:10.127Z,13.60
2017-12-31T15:33:36.634Z,13.50
2017-12-31T15:36:03.292Z,13.50
2017-12-31T15:38:29.936Z,13.50
2017-12-31T15:40:56.487Z,13.50
2017-12-31T15:43:22.902Z,13.50
2017-12-31T15:45:49.359Z,13.50
2017-12-31T15:48:16.210Z,13.60
2017-12-31T15:50:43.534Z,13.50
2017-12-31T15:53:10.163Z,13.50
2017-12-31T15:55:36.739Z,13.50
2017-12-31T15:58:03.689Z,13.40
2017-12-31T16:00:30.222Z,13.40
2017-12-31T16:02:56.569Z,13.40
2017-12-31T16:05:22.987Z,13.50
2017-12-31T16:07:49.384Z,13.50
2017-12-31T16:10:15.850Z,13.40
2017-12-31T16:12:43.017Z,13.40
2017-12-31T16:15:09.389Z,13.30
2017-12-31T16:17:35.848Z,13.30
2017-12-31T16:20:02.231Z,13.20
2017-12-31T16:22:29.509Z,13.10
2017-12-31T16:24:55.909Z,13.10
2017-12-31T16:27:22.263Z,13.00
2017-12-31T16:29:48.598Z,13.10
2017-12-31T16:32:14.947Z,13.00
2017-12-31T16:34:41.324Z,12.80
2017-12-31T16:37:08.451Z,12.80
2017-12-31T16:39:35.725Z,12.70
2017-12-31T16:42:02.339Z,12.60
2017-12-31T16:44:28.731Z,12.60
2017-12-31T16:46:55.975Z,12.50
2017-12-31T16:49:22.382Z,12.50
2017-12-31T16:51:49.101Z,12.40
2017-12-31T16:54:15.609Z,12.40
2017-12-31T16:56:42.099Z,12.30
2017-12-31T16:59:08.444Z,12.20
2017-12-31T17:01:34.806Z,12.20
2017-12-31T17:04:01.158Z,12.10
2017-12-31T17:06:27.519Z,12.00
2017-12-31T17:08:53.823Z,12.00
2017-12-31T17:11:20.243Z,12.10
2017-12-31T17:13:47.360Z,11.80
2017-12-31T17:16:13.923Z,11.80
2017-12-31T17:18:40.430Z,11.80
2017-12-31T17:21:06.759Z,11.80
2017-12-31T17:23:33.099Z,11.70
2017-12-31T17:25:59.585Z,11.80
2017-12-31T17:28:25.918Z,11.80
2017-12-31T17:30:52.283Z,11.80
2017-12-31T17:33:19.447Z,11.60
2017-12-31T17:35:45.850Z,11.50
2017-12-31T17:38:12.183Z,11.50
2017-12-31T17:40:38.628Z,11.50
2017-12-31T17:43:05.407Z,11.40
2017-12-31T17:45:31.787Z,11.40
2017-12-31T17:47:58.166Z,11.40
2017-12-31T17:50:24.952Z,11.30
2017-12-31T17:52:52.497Z,11.40
2017-12-31T17:55:18.933Z,11.40
2017-12-31T17:57:45.411Z,11.30
2017-12-31T18:00:11.922Z,11.20
2017-12-31T18:02:38.333Z,11.20
2017-12-31T18:05:05.020Z,11.30
2017-12-31T18:07:31.435Z,11.20
2017-12-31T18:09:57.755Z,11.20
2017-12-31T18:12:24.120Z,11.20
2017-12-31T18:14:51.207Z,11.20
2017-12-31T18:17:17.619Z,11.10
2017-12-31T18:19:43.947Z,11.10
2017-12-31T18:22:10.339Z,11.10
2017-12-31T18:24:36.793Z,11.10
2017-12-31T18:27:03.992Z,11.10
2017-12-31T18:29:31.143Z,11.20
2017-12-31T18:31:57.735Z,11.10
2017-12-31T18:34:24.863Z,11.40
2017-12-31T18:36:51.902Z,11.30
2017-12-31T18:39:18.259Z,11.40
2017-12-31T18:41:44.604Z,11.50
2017-12-31T18:44:11.061Z,11.70
2017-12-31T18:46:38.225Z,11.80
2017-12-31T18:49:04.667Z,11.80
2017-12-31T18:51:31.084Z,11.80
2017-12-31T18:53:57.485Z,11.80
2017-12-31T18:56:23.907Z,11.80
2017-12-31T18:58:51.788Z,11.90
2017-12-31T19:01:18.151Z,11.90
2017-12-31T19:03:45.309Z,12.00
2017-12-31T19:06:11.879Z,12.00
2017-12-31T19:08:38.675Z,12.10
2017-12-31T19:11:05.194Z,11.70
2017-12-31T19:13:31.891Z,11.10
2017-12-31T19:15:58.322Z,10.60
2017-12-31T19:18:24.713Z,10.30
2017-12-31T19:20:51.063Z,10.00
2017-12-31T19:23:17.577Z,9.80
2017-12-31T19:25:44.686Z,9.60
2017-12-31T19:28:11.139Z,9.60
2017-12-31T19:30:37.519Z,9.50
2017-12-31T19:33:03.968Z,9.50
2017-12-31T19:35:30.366Z,9.40
2017-12-31T19:37:56.771Z,9.40
2017-12-31T19:40:23.944Z,9.20
2017-12-31T19:42:50.319Z,9.20
2017-12-31T19:45:16.675Z,9.20
2017-12-31T19:47:43.075Z,9.20
2017-12-31T19:50:10.185Z,9.20
2017-12-31T19:52:36.610Z,9.10
2017-12-31T19:55:03.478Z,9.20
2017-12-31T19:57:29.990Z,9.20
2017-12-31T19:59:57.119Z,9.10
2017-12-31T20:02:24.223Z,9.10
2017-12-31T20:04:50.690Z,8.80
2017-12-31T20:07:17.151Z,9.10
2017-12-31T20:09:45.070Z,9.00
2017-12-31T20:12:12.199Z,9.00
2017-12-31T20:14:38.543Z,9.00
2017-12-31T20:17:05.469Z,9.00
2017-12-31T20:19:31.901Z,9.00
2017-12-31T20:21:58.269Z,9.00
2017-12-31T20:24:24.675Z,9.00
2017-12-31T20:26:51.063Z,9.00
2017-12-31T20:29:18.324Z,9.00
2017-12-31T20:31:45.469Z,9.00
2017-12-31T20:34:11.951Z,9.00
2017-12-31T20:36:38.339Z,9.00
2017-12-31T20:39:05.727Z,8.10
2017-12-31T20:41:33.170Z,9.00
2017-12-31T20:43:59.523Z,8.90
2017-12-31T20:46:25.867Z,9.00
2017-12-31T20:48:52.192Z,8.90
2017-12-31T20:51:18.607Z,8.80
2017-12-31T20:53:44.935Z,8.80
2017-12-31T20:56:12.106Z,8.70
2017-12-31T20:58:38.462Z,8.60
2017-12-31T21:01:05.377Z,8.70
2017-12-31T21:03:31.707Z,8.70
2017-12-31T21:05:58.133Z,8.70
2017-12-31T21:08:24.567Z,8.70
2017-12-31T21:10:50.992Z,8.60
2017-12-31T21:13:17.391Z,8.60
2017-12-31T21:15:43.870Z,8.50
2017-12-31T21:18:10.226Z,8.50
2017-12-31T21:20:37.323Z,8.50
2017-12-31T21:23:03.770Z,8.40
2017-12-31T21:25:30.107Z,8.60
2017-12-31T21:27:56.522Z,8.40
2017-12-31T21:30:23.685Z,8.50
2017-12-31T21:32:50.943Z,8.50
2017-12-31T21:35:18.023Z,8.40
2017-12-31T21:37:44.451Z,8.40
2017-12-31T21:40:11.574Z,8.50
2017-12-31T21:42:37.928Z,8.40
2017-12-31T21:45:04.869Z,8.60
2017-12-31T21:47:32.039Z,8.50
2017-12-31T21:49:59.178Z,8.50
2017-12-31T21:52:25.583Z,8.50
2017-12-31T21:54:52.692Z,8.60
2017-12-31T21:57:19.023Z,8.60
2017-12-31T21:59:45.379Z,8.70
2017-12-31T22:02:11.874Z,8.80
2017-12-31T22:04:39.023Z,8.80
2017-12-31T22:07:05.734Z,8.10
2017-12-31T22:09:32.107Z,8.60
2017-12-31T22:11:58.483Z,8.30
2017-12-31T22:14:25.551Z,7.90
2017-12-31T22:16:52.031Z,7.90
2017-12-31T22:19:18.402Z,7.70
2017-12-31T22:21:46.274Z,7.50
2017-12-31T22:24:12.611Z,7.50
2017-12-31T22:26:39.822Z,7.50
2017-12-31T22:29:06.449Z,7.50
2017-12-31T22:31:32.801Z,7.50
2017-12-31T22:33:59.209Z,7.40
2017-12-31T22:36:25.610Z,7.40
2017-12-31T22:38:52.718Z,7.30
2017-12-31T22:41:20.615Z,7.20
2017-12-31T22:43:47.751Z,7.20
2017-12-31T22:46:14.906Z,7.20
2017-12-31T22:48:41.310Z,7.20
2017-12-31T22:51:08.391Z,7.10
2017-12-31T22:53:34.757Z,7.10
2017-12-31T22:56:01.111Z,7.10
2017-12-31T22:58:27.499Z,7.00
2017-12-31T23:00:53.969Z,6.80
2017-12-31T23:03:20.427Z,6.80
2017-12-31T23:05:46.841Z,6.80
2017-12-31T23:08:13.262Z,6.80
2017-12-31T23:10:41.116Z,6.80
2017-12-31T23:13:08.227Z,6.90
2017-12-31T23:15:34.669Z,6.90
2017-12-31T23:18:01.032Z,6.90
2017-12-31T23:20:27.403Z,7.00
2017-12-31T23:22:54.520Z,7.10
2017-12-31T23:25:21.082Z,7.10
2017-12-31T23:27:47.531Z,7.30
2017-12-31T23:30:13.950Z,7.20
2017-12-31T23:32:41.028Z,7.50
2017-12-31T23:35:07.383Z,7.40
2017-12-31T23:37:33.746Z,7.60
2017-12-31T23:40:00.901Z,7.60
2017-12-31T23:42:27.321Z,7.50
2017-12-31T23:44:53.699Z,7.60
2017-12-31T23:47:20.086Z,7.30
2017-12-31T23:49:48.007Z,7.50
2017-12-31T23:52:15.151Z,7.50
2017-12-31T23:54:41.547Z,7.50
2017-12-31T23:57:07.939Z,7.50
2017-12-31T23:59:35.859Z,7.50
